Time;durP1;ratioP1;P1;durP2;ratioP2;P2;SDS_P1;SDS_P2;PMS_P1;PMS_P2;Temp;Humidity;BMP_temperature;BMP_pressure;BME280_temperature;BME280_humidity;BME280_pressure;Samples;Min_cycle;Max_cycle;Signal;HPM_P1;HPM_P2
2022/04/13 00:01:05;;;;;;;6.50;3.77;;;17.60;44.50;;;;;;5028716;28;20177;-71
2022/04/13 00:03:31;;;;;;;4.50;3.33;;;17.60;44.40;;;;;;5030095;28;20178;-71
2022/04/13 00:05:56;;;;;;;3.70;3.30;;;17.60;44.40;;;;;;5027860;28;20205;-71
2022/04/13 00:08:22;;;;;;;6.40;4.00;;;17.50;44.40;;;;;;5026687;28;20178;-71
2022/04/13 00:10:48;;;;;;;6.20;3.77;;;17.60;44.40;;;;;;5028862;28;20728;-71
2022/04/13 00:13:13;;;;;;;6.63;4.23;;;17.60;44.50;;;;;;5029371;28;20220;-71
2022/04/13 00:15:40;;;;;;;4.83;3.73;;;17.60;44.40;;;;;;5011093;28;20649;-71
2022/04/13 00:18:09;;;;;;;5.93;4.07;;;17.70;44.50;;;;;;5025333;28;20189;-71
2022/04/13 00:20:35;;;;;;;4.73;3.70;;;17.60;44.40;;;;;;5028910;28;20867;-71
2022/04/13 00:23:01;;;;;;;7.30;4.37;;;17.60;44.40;;;;;;5024663;28;20421;-71
2022/04/13 00:25:28;;;;;;;5.37;3.80;;;17.60;44.40;;;;;;5029085;28;20970;-70
2022/04/13 00:27:54;;;;;;;4.93;4.13;;;17.50;44.40;;;;;;5028270;28;20227;-71
2022/04/13 00:30:19;;;;;;;9.00;3.90;;;17.40;44.30;;;;;;5028745;28;20514;-70
2022/04/13 00:32:45;;;;;;;7.20;4.30;;;17.40;44.30;;;;;;5027853;28;20652;-71
2022/04/13 00:35:10;;;;;;;5.97;3.63;;;17.40;44.30;;;;;;5029334;28;20177;-71
2022/04/13 00:37:38;;;;;;;7.30;3.87;;;17.50;44.40;;;;;;5028730;28;20223;-71
2022/04/13 00:40:07;;;;;;;6.43;3.93;;;17.40;44.30;;;;;;5029352;28;20197;-71
2022/04/13 00:42:33;;;;;;;5.83;3.20;;;17.40;44.20;;;;;;5027966;28;20802;-71
2022/04/13 00:44:59;;;;;;;5.67;4.13;;;17.50;44.30;;;;;;5028627;28;20405;-71
2022/04/13 00:47:25;;;;;;;5.20;4.23;;;17.40;44.30;;;;;;5014068;28;20190;-71
2022/04/13 00:49:53;;;;;;;6.30;4.10;;;17.50;44.40;;;;;;5027933;28;20193;-71
2022/04/13 00:52:21;;;;;;;7.20;3.57;;;17.40;44.40;;;;;;5017647;28;20509;-71
2022/04/13 00:54:48;;;;;;;7.90;4.00;;;17.40;44.20;;;;;;5028664;28;20431;-71
2022/04/13 00:57:17;;;;;;;5.20;3.83;;;17.40;44.30;;;;;;5028438;28;20447;-71
2022/04/13 00:59:45;;;;;;;5.87;3.73;;;17.40;44.30;;;;;;5027891;28;20427;-71
2022/04/13 01:02:12;;;;;;;4.37;3.57;;;17.30;44.20;;;;;;5028068;28;20511;-71
2022/04/13 01:04:38;;;;;;;5.83;3.53;;;17.30;44.20;;;;;;5027873;28;20809;-71
2022/04/13 01:07:07;;;;;;;6.37;4.13;;;17.20;44.20;;;;;;5027672;28;20806;-71
2022/04/13 01:09:34;;;;;;;6.67;3.90;;;17.20;48.00;;;;;;5028516;28;20425;-71
2022/04/13 01:12:00;;;;;;;6.27;3.93;;;17.20;49.90;;;;;;5027511;28;20420;-71
2022/04/13 01:14:25;;;;;;;8.23;4.20;;;17.10;49.70;;;;;;5027310;28;20447;-71
2022/04/13 01:16:51;;;;;;;6.27;4.30;;;17.10;51.50;;;;;;5028467;28;20190;-71
2022/04/13 01:19:17;;;;;;;8.27;4.50;;;17.00;49.60;;;;;;5027677;28;20185;-71
2022/04/13 01:21:45;;;;;;;6.80;4.03;;;17.00;50.50;;;;;;5027700;28;20170;-71
2022/04/13 01:24:12;;;;;;;6.27;3.70;;;16.90;52.80;;;;;;5027799;28;20436;-71
2022/04/13 01:26:38;;;;;;;5.70;3.83;;;16.90;54.10;;;;;;5027483;28;20444;-71
2022/04/13 01:29:04;;;;;;;4.30;3.53;;;16.80;58.40;;;;;;5027467;28;20910;-71
2022/04/13 01:31:30;;;;;;;4.90;4.00;;;16.70;59.70;;;;;;5028043;28;20293;-71
2022/04/13 01:33:57;;;;;;;6.70;3.50;;;16.50;61.00;;;;;;5028055;28;20808;-71
2022/04/13 01:36:23;;;;;;;8.80;3.40;;;16.40;61.40;;;;;;5027848;28;20483;-71
2022/04/13 01:38:48;;;;;;;4.40;3.50;;;16.30;61.70;;;;;;5028101;28;20883;-71
2022/04/13 01:41:14;;;;;;;5.67;4.00;;;16.30;61.90;;;;;;5027022;28;20174;-71
2022/04/13 01:43:39;;;;;;;4.20;3.50;;;16.30;61.00;;;;;;5026190;28;20182;-71
2022/04/13 01:46:05;;;;;;;4.20;3.53;;;16.40;59.70;;;;;;5026411;28;20262;-71
2022/04/13 01:48:31;;;;;;;4.30;3.30;;;16.40;60.20;;;;;;5027973;28;20201;-71
2022/04/13 01:50:58;;;;;;;7.93;3.80;;;16.40;59.60;;;;;;5026807;28;20332;-70
2022/04/13 01:53:27;;;;;;;6.80;3.73;;;16.50;60.40;;;;;;5027840;28;20448;-71
2022/04/13 01:55:54;;;;;;;4.70;3.23;;;16.50;60.80;;;;;;5008953;28;20983;-71
2022/04/13 01:58:20;;;;;;;6.23;3.17;;;16.50;60.40;;;;;;5009720;28;20791;-71
2022/04/13 02:00:46;;;;;;;4.37;3.23;;;16.40;61.20;;;;;;5025504;28;20413;-71
2022/04/13 02:03:11;;;;;;;4.40;3.43;;;16.30;65.20;;;;;;5027755;28;21065;-70
2022/04/13 02:05:37;;;;;;;7.10;3.20;;;16.40;69.90;;;;;;5009389;28;20205;-70
2022/04/13 02:08:03;;;;;;;5.87;3.10;;;16.20;67.70;;;;;;5027277;28;20391;-70
2022/04/13 02:10:28;;;;;;;5.67;3.27;;;16.10;71.40;;;;;;5024796;28;20269;-71
2022/04/13 02:12:54;;;;;;;3.40;3.10;;;17.10;74.00;;;;;;5026303;28;20206;-70
2022/04/13 02:15:20;;;;;;;6.03;3.37;;;15.90;75.60;;;;;;5026690;28;20210;-70
2022/04/13 02:17:45;;;;;;;3.90;2.83;;;15.80;76.70;;;;;;5024861;28;20204;-71
2022/04/13 02:20:11;;;;;;;3.17;2.87;;;15.70;81.80;;;;;;5027147;28;20592;-71
2022/04/13 02:22:36;;;;;;;3.00;2.53;;;15.70;82.10;;;;;;5026704;28;20709;-70
2022/04/13 02:25:04;;;;;;;3.63;2.60;;;15.60;81.80;;;;;;5027069;28;20254;-70
2022/04/13 02:27:29;;;;;;;3.27;2.50;;;15.50;84.60;;;;;;5021213;28;20252;-71
2022/04/13 02:29:55;;;;;;;3.63;2.83;;;15.40;89.00;;;;;;5025662;28;20929;-70
2022/04/13 02:32:20;;;;;;;2.70;2.43;;;15.30;90.10;;;;;;5026753;28;20459;-70
2022/04/13 02:34:48;;;;;;;7.60;2.80;;;15.20;90.40;;;;;;5026478;28;20605;-70
2022/04/13 02:37:14;;;;;;;2.90;2.60;;;15.20;93.20;;;;;;5026990;28;20221;-71
2022/04/13 02:39:40;;;;;;;3.07;2.73;;;15.10;94.10;;;;;;5026425;28;20778;-70
2022/04/13 02:42:06;;;;;;;3.03;2.30;;;15.00;94.40;;;;;;5032763;28;20493;-70
2022/04/13 02:44:31;;;;;;;3.43;2.50;;;15.00;96.30;;;;;;5039408;28;20574;-70
2022/04/13 02:46:57;;;;;;;3.40;2.60;;;14.90;96.40;;;;;;5035430;28;20200;-70
2022/04/13 02:49:22;;;;;;;5.10;2.80;;;14.80;95.40;;;;;;5027050;28;20181;-71
2022/04/13 02:51:48;;;;;;;3.53;2.33;;;14.80;97.20;;;;;;5026381;28;20174;-70
2022/04/13 02:54:13;;;;;;;4.53;2.90;;;14.60;99.00;;;;;;5027004;28;20162;-70
2022/04/13 02:56:39;;;;;;;3.83;3.00;;;14.50;99.90;;;;;;5026630;28;20204;-71
2022/04/13 02:59:04;;;;;;;4.03;2.87;;;14.40;99.90;;;;;;5026844;28;20163;-70
2022/04/13 03:01:30;;;;;;;4.50;2.97;;;14.30;99.90;;;;;;5008582;28;20174;-70
2022/04/13 03:03:56;;;;;;;5.40;2.90;;;14.30;99.90;;;;;;5027005;28;20276;-71
2022/04/13 03:06:22;;;;;;;4.27;3.10;;;14.10;99.90;;;;;;5025949;28;20197;-70
2022/04/13 03:08:47;;;;;;;6.03;3.10;;;14.10;99.90;;;;;;5026897;28;20196;-71
2022/04/13 03:11:13;;;;;;;4.23;2.80;;;14.00;99.90;;;;;;5025817;28;20446;-70
2022/04/13 03:13:38;;;;;;;4.40;3.07;;;13.90;99.90;;;;;;5027549;28;20212;-70
2022/04/13 03:16:04;;;;;;;5.23;3.47;;;13.90;99.90;;;;;;5016396;28;20406;-71
2022/04/13 03:18:30;;;;;;;6.67;2.77;;;13.80;99.90;;;;;;5027257;28;20178;-71
2022/04/13 03:20:56;;;;;;;3.40;2.73;;;13.80;99.90;;;;;;5025715;28;20174;-71
2022/04/13 03:23:21;;;;;;;5.70;3.10;;;13.70;99.90;;;;;;5027116;28;20408;-71
2022/04/13 03:25:48;;;;;;;4.57;3.07;;;15.00;99.90;;;;;;5007929;28;20483;-71
2022/04/13 03:28:14;;;;;;;3.40;2.93;;;13.60;99.90;;;;;;5027140;28;20174;-71
2022/04/13 03:30:39;;;;;;;5.37;3.40;;;13.60;99.90;;;;;;5025690;28;20421;-71
2022/04/13 03:33:05;;;;;;;3.63;3.00;;;13.50;99.90;;;;;;5026886;28;20541;-71
2022/04/13 03:35:31;;;;;;;3.10;2.80;;;13.50;99.90;;;;;;5026734;28;20186;-70
2022/04/13 03:37:56;;;;;;;3.37;2.93;;;13.50;99.90;;;;;;5026227;28;20166;-70
2022/04/13 03:40:23;;;;;;;8.23;3.40;;;13.40;99.90;;;;;;5027309;28;20265;-71
2022/04/13 03:42:48;;;;;;;8.93;3.47;;;13.30;99.90;;;;;;5029014;28;20632;-71
2022/04/13 03:45:14;;;;;;;5.37;3.00;;;13.20;99.90;;;;;;5030080;28;20423;-70
2022/04/13 03:47:41;;;;;;;3.90;3.10;;;13.20;99.90;;;;;;5030587;28;20639;-71
2022/04/13 03:50:08;;;;;;;3.67;2.90;;;13.20;99.90;;;;;;5030474;28;20527;-70
2022/04/13 03:52:35;;;;;;;3.57;2.80;;;13.10;99.90;;;;;;5029867;28;20586;-70
2022/04/13 03:55:04;;;;;;;3.10;2.80;;;13.10;99.90;;;;;;5030156;28;20467;-71
2022/04/13 03:57:29;;;;;;;3.80;3.00;;;13.00;99.90;;;;;;5029324;28;20474;-70
2022/04/13 03:59:55;;;;;;;8.60;3.57;;;13.00;99.90;;;;;;5011984;28;20428;-70
2022/04/13 04:02:21;;;;;;;4.97;3.10;;;12.90;99.90;;;;;;5030038;28;20197;-71
2022/04/13 04:04:46;;;;;;;3.27;2.90;;;12.90;99.90;;;;;;5029825;28;20648;-71
2022/04/13 04:07:12;;;;;;;3.57;2.80;;;12.80;99.90;;;;;;5029169;28;20347;-71
2022/04/13 04:09:37;;;;;;;4.00;3.10;;;12.80;99.90;;;;;;5030002;28;20189;-70
2022/04/13 04:12:03;;;;;;;5.67;3.00;;;12.80;99.90;;;;;;5029272;28;20253;-70
2022/04/13 04:14:29;;;;;;;8.00;3.47;;;12.70;99.90;;;;;;5036651;28;20258;-70
2022/04/13 04:16:54;;;;;;;5.60;3.00;;;12.60;99.90;;;;;;5041233;28;20208;-71
2022/04/13 04:19:20;;;;;;;3.53;3.00;;;12.60;99.90;;;;;;5049888;28;20245;-70
2022/04/13 04:21:45;;;;;;;3.30;2.87;;;12.50;99.90;;;;;;5034004;28;20188;-71
2022/04/13 04:24:11;;;;;;;3.97;3.20;;;12.40;99.90;;;;;;5029364;28;20204;-71
2022/04/13 04:26:36;;;;;;;5.10;3.50;;;12.40;99.90;;;;;;5024934;28;20746;-71
2022/04/13 04:29:02;;;;;;;4.70;3.63;;;12.40;99.90;;;;;;5029515;28;20261;-71
2022/04/13 04:34:13;;;;;;;4.53;3.53;;;12.30;99.90;;;;;;5028970;28;20208;-70
2022/04/13 04:36:38;;;;;;;10.63;3.60;;;12.40;99.90;;;;;;5028770;28;20528;-70
2022/04/13 04:39:04;;;;;;;5.50;3.43;;;12.40;99.90;;;;;;5029581;28;20496;-70
2022/04/13 04:41:29;;;;;;;4.70;3.27;;;12.40;99.90;;;;;;5029133;28;20288;-70
2022/04/13 04:43:55;;;;;;;4.43;3.00;;;12.30;99.90;;;;;;5014521;28;20169;-70
2022/04/13 04:46:20;;;;;;;4.53;3.50;;;12.30;99.90;;;;;;5034424;28;20263;-70
2022/04/13 04:48:46;;;;;;;5.13;3.30;;;12.30;99.90;;;;;;5029251;28;20174;-70
2022/04/13 04:51:12;;;;;;;3.87;3.47;;;12.30;99.90;;;;;;5028673;28;20257;-70
2022/04/13 04:53:38;;;;;;;4.30;3.40;;;12.30;99.90;;;;;;5028917;28;20284;-71
2022/04/13 04:56:04;;;;;;;3.83;3.23;;;12.30;99.90;;;;;;5010310;28;20528;-70
2022/04/13 04:58:29;;;;;;;5.07;4.13;;;12.30;99.90;;;;;;5011732;28;20652;-70
2022/04/13 05:00:55;;;;;;;4.43;3.80;;;12.30;99.90;;;;;;5026238;28;20432;-70
2022/04/13 05:03:20;;;;;;;7.70;4.93;;;12.30;99.90;;;;;;5027745;28;20529;-70
2022/04/13 05:05:46;;;;;;;6.10;5.00;;;12.30;99.90;;;;;;5032248;28;20640;-70
2022/04/13 05:08:13;;;;;;;6.77;5.27;;;12.30;99.90;;;;;;5028433;28;20174;-70
2022/04/13 05:10:41;;;;;;;9.10;4.73;;;12.40;99.90;;;;;;5027952;28;20173;-70
2022/04/13 05:13:06;;;;;;;7.80;5.70;;;12.50;99.90;;;;;;5009676;28;20673;-70
2022/04/13 05:15:32;;;;;;;8.60;6.43;;;12.50;99.90;;;;;;5034928;28;20459;-70
2022/04/13 05:17:58;;;;;;;13.83;5.60;;;12.50;99.90;;;;;;5028881;28;20360;-70
2022/04/13 05:20:23;;;;;;;7.73;5.47;;;12.60;99.90;;;;;;5028866;28;20260;-70
2022/04/13 05:22:49;;;;;;;7.03;4.67;;;12.60;99.90;;;;;;5028231;28;20280;-70
2022/04/13 05:25:15;;;;;;;4.80;4.07;;;12.60;99.90;;;;;;5010308;28;20676;-70
2022/04/13 05:27:42;;;;;;;6.90;4.40;;;12.70;99.90;;;;;;5010136;28;20468;-70
2022/04/13 05:30:09;;;;;;;7.43;4.07;;;12.70;99.90;;;;;;5027881;28;20412;-70
2022/04/13 05:32:58;;;;;;;5.87;4.53;;;12.70;99.90;;;;;;5027621;28;20448;-71
2022/04/13 05:35:25;;;;;;;6.10;4.63;;;12.70;99.90;;;;;;5027981;28;20438;-71
2022/04/13 05:37:55;;;;;;;7.67;4.57;;;12.70;99.90;;;;;;5009783;28;20720;-71
2022/04/13 05:40:22;;;;;;;4.63;3.73;;;12.80;99.90;;;;;;5028240;28;21069;-71
2022/04/13 05:42:48;;;;;;;7.90;4.30;;;12.90;99.90;;;;;;5026598;28;20424;-71
2022/04/13 05:45:14;;;;;;;8.67;4.00;;;12.80;99.90;;;;;;5026835;28;20439;-70
2022/04/13 05:47:42;;;;;;;5.70;4.00;;;12.90;99.90;;;;;;5027655;28;20351;-71
2022/04/13 05:50:08;;;;;;;8.03;4.10;;;13.00;99.90;;;;;;5027758;28;20931;-71
2022/04/13 05:52:34;;;;;;;7.13;3.67;;;13.10;99.90;;;;;;5027473;28;20563;-70
2022/04/13 05:54:59;;;;;;;6.73;4.20;;;13.30;99.90;;;;;;5027792;28;20817;-71
2022/04/13 05:57:25;;;;;;;7.50;4.77;;;13.30;99.90;;;;;;5027052;28;20169;-71
2022/04/13 05:59:50;;;;;;;11.10;6.10;;;13.40;99.90;;;;;;5027603;28;20201;-71
2022/04/13 06:02:16;;;;;;;6.30;4.20;;;13.50;99.90;;;;;;5026282;28;20170;-71
2022/04/13 06:04:41;;;;;;;14.60;4.40;;;13.60;99.90;;;;;;5017624;28;20380;-71
2022/04/13 06:07:07;;;;;;;15.40;4.27;;;13.80;99.90;;;;;;5026411;28;20201;-72
2022/04/13 06:09:32;;;;;;;8.80;3.60;;;14.20;99.90;;;;;;5032316;28;20181;-72
2022/04/13 06:11:59;;;;;;;8.30;3.80;;;14.10;99.90;;;;;;5041211;28;20192;-72
2022/04/13 06:14:24;;;;;;;6.33;3.90;;;14.30;99.90;;;;;;5032602;28;20185;-73
2022/04/13 06:16:50;;;;;;;4.50;3.67;;;14.40;99.90;;;;;;5010260;28;20551;-71
2022/04/13 06:19:15;;;;;;;6.73;4.33;;;14.60;99.90;;;;;;5026415;28;20182;-72
2022/04/13 06:21:41;;;;;;;17.50;4.83;;;;;;;;;;5026923;28;20240;-73
2022/04/13 06:24:07;;;;;;;5.47;4.37;;;14.80;99.90;;;;;;5026994;28;20244;-74
2022/04/13 06:26:32;;;;;;;5.60;4.83;;;14.90;99.90;;;;;;5025557;28;20483;-72
2022/04/13 06:28:58;;;;;;;14.57;4.67;;;15.00;99.90;;;;;;5026903;28;20653;-71
2022/04/13 06:31:24;;;;;;;7.33;5.10;;;;;;;;;;5027107;28;20645;-75
2022/04/13 06:33:50;;;;;;;7.57;5.23;;;15.40;99.90;;;;;;5012247;28;20209;-72
2022/04/13 06:36:15;;;;;;;8.13;4.90;;;15.70;99.90;;;;;;5009176;28;20498;-73
2022/04/13 06:38:41;;;;;;;8.30;5.70;;;15.70;99.90;;;;;;5026848;28;20216;-71
2022/04/13 06:41:10;;;;;;;8.43;5.80;;;16.00;99.90;;;;;;5029835;28;20234;-71
2022/04/13 06:43:36;;;;;;;6.90;5.17;;;16.20;99.90;;;;;;5030437;28;20177;-71
2022/04/13 06:46:01;;;;;;;8.10;4.87;;;16.40;99.90;;;;;;5033175;28;20459;-70
2022/04/13 06:48:27;;;;;;;9.27;5.70;;;16.70;99.90;;;;;;5009245;28;20172;-70
2022/04/13 06:50:52;;;;;;;6.30;4.80;;;17.00;99.90;;;;;;5030213;28;20214;-71
2022/04/13 06:53:18;;;;;;;6.40;5.63;;;17.20;99.90;;;;;;5031543;28;20213;-71
2022/04/13 06:55:45;;;;;;;8.70;5.50;;;17.40;99.90;;;;;;5025397;28;20190;-71
2022/04/13 06:58:10;;;;;;;8.17;5.37;;;17.60;99.90;;;;;;5027068;28;20652;-71
2022/04/13 07:00:36;;;;;;;9.53;6.00;;;17.90;99.90;;;;;;5026095;28;20447;-71
2022/04/13 07:03:02;;;;;;;10.83;5.90;;;18.20;94.50;;;;;;5024183;28;21418;-72
2022/04/13 07:05:28;;;;;;;10.30;6.03;;;18.60;92.10;;;;;;5025136;28;20202;-71
2022/04/13 07:07:57;;;;;;;9.43;5.63;;;18.90;90.80;;;;;;5026220;28;20193;-71
2022/04/13 07:10:23;;;;;;;9.60;5.77;;;19.30;87.40;;;;;;5026208;28;20206;-71
2022/04/13 07:12:49;;;;;;;14.50;5.97;;;19.50;86.20;;;;;;5025342;28;20479;-71
2022/04/13 07:15:17;;;;;;;10.10;6.17;;;19.70;84.10;;;;;;5035636;28;20435;-71
2022/04/13 07:17:44;;;;;;;14.07;5.67;;;19.90;77.90;;;;;;5034220;28;20319;-71
2022/04/13 07:20:10;;;;;;;8.90;5.30;;;20.10;76.00;;;;;;5012939;28;20440;-71
2022/04/13 07:22:53;;;;;;;12.13;5.13;;;20.30;75.20;;;;;;5012130;28;20535;-71
2022/04/13 07:25:19;;;;;;;8.90;5.10;;;20.60;65.70;;;;;;5038687;28;20507;-71
2022/04/13 07:27:46;;;;;;;8.03;4.60;;;20.80;66.00;;;;;;5038832;28;20805;-72
2022/04/13 07:30:13;;;;;;;8.13;5.00;;;21.10;59.20;;;;;;5020700;28;20442;-72
2022/04/13 07:32:39;;;;;;;7.80;5.80;;;21.30;58.40;;;;;;5030063;28;20448;-71
2022/04/13 07:35:05;;;;;;;9.77;6.10;;;21.60;59.60;;;;;;5031459;28;20474;-71
2022/04/13 07:37:31;;;;;;;9.77;6.10;;;21.80;59.20;;;;;;5029756;28;20265;-72
2022/04/13 07:39:58;;;;;;;13.47;6.13;;;22.20;56.50;;;;;;5016106;28;20411;-72
2022/04/13 07:42:25;;;;;;;10.00;5.50;;;22.80;50.20;;;;;;5029308;28;20429;-72
2022/04/13 07:44:51;;;;;;;11.87;6.40;;;23.10;50.60;;;;;;5027789;28;20434;-71
2022/04/13 07:47:19;;;;;;;10.27;6.80;;;23.40;49.20;;;;;;5028825;28;20526;-71
2022/04/13 07:49:45;;;;;;;12.03;5.80;;;23.80;49.60;;;;;;5028593;28;20177;-71
2022/04/13 07:52:11;;;;;;;7.80;5.40;;;24.00;49.70;;;;;;5039327;28;20430;-72
2022/04/13 07:54:37;;;;;;;7.30;5.57;;;24.20;49.90;;;;;;5047442;28;20227;-72
2022/04/13 07:57:02;;;;;;;8.87;5.00;;;24.50;50.10;;;;;;5032503;28;20285;-72
2022/04/13 07:59:28;;;;;;;6.57;5.03;;;25.10;50.60;;;;;;5029928;28;20219;-72
2022/04/13 08:01:54;;;;;;;7.73;4.70;;;25.50;43.80;;;;;;5029841;28;20206;-72
2022/04/13 08:04:20;;;;;;;8.43;5.57;;;26.10;39.80;;;;;;5036953;28;20219;-72
2022/04/13 08:06:45;;;;;;;8.17;4.27;;;26.70;27.90;;;;;;5030967;28;20619;-72
2022/04/13 08:09:11;;;;;;;9.30;4.57;;;26.60;23.40;;;;;;5012478;28;20180;-71
2022/04/13 08:11:37;;;;;;;5.20;4.20;;;26.00;24.70;;;;;;5029775;28;20225;-72
2022/04/13 08:14:02;;;;;;;7.47;4.33;;;26.20;24.90;;;;;;5033430;28;20215;-72
2022/04/13 08:16:28;;;;;;;11.80;4.20;;;26.20;22.70;;;;;;5034987;28;20667;-71
2022/04/13 08:18:53;;;;;;;5.70;3.93;;;25.80;23.60;;;;;;5038647;28;20178;-71
2022/04/13 08:21:19;;;;;;;7.47;3.90;;;26.00;23.20;;;;;;5029072;28;20174;-72
2022/04/13 08:23:44;;;;;;;7.37;4.40;;;26.70;25.80;;;;;;5030584;28;20268;-72
2022/04/13 08:26:10;;;;;;;5.83;4.17;;;27.20;19.80;;;;;;5028069;28;20205;-72
2022/04/13 08:28:36;;;;;;;6.37;4.20;;;26.40;21.30;;;;;;5028361;28;20181;-72
2022/04/13 08:31:04;;;;;;;6.37;4.30;;;26.10;23.10;;;;;;5025414;28;20184;-71
2022/04/13 08:33:33;;;;;;;6.67;4.10;;;26.20;22.30;;;;;;5028794;28;20667;-72
2022/04/13 08:35:58;;;;;;;5.63;3.80;;;26.30;21.10;;;;;;5031755;28;20286;-71
2022/04/13 08:38:24;;;;;;;7.63;3.90;;;26.50;22.70;;;;;;5040329;28;20253;-71
2022/04/13 08:41:00;;;;;;;7.57;4.00;;;26.70;20.20;;;;;;5043629;28;20229;-72
2022/04/13 08:43:44;;;;;;;5.10;3.77;;;27.00;17.80;;;;;;5040836;28;20260;-72
2022/04/13 08:46:14;;;;;;;5.73;3.77;;;27.00;18.30;;;;;;5021983;28;20193;-72
2022/04/13 08:48:41;;;;;;;9.33;4.10;;;27.50;16.90;;;;;;5030055;28;20191;-71
2022/04/13 08:51:13;;;;;;;6.03;4.00;;;27.90;13.90;;;;;;5029273;28;20205;-71
2022/04/13 08:53:42;;;;;;;5.45;3.88;;;27.70;12.90;;;;;;5029899;28;20291;-72
2022/04/13 08:56:10;;;;;;;9.10;3.90;;;27.90;13.20;;;;;;5028903;28;20186;-72
2022/04/13 08:59:01;;;;;;;14.27;3.67;;;28.20;13.00;;;;;;5026981;28;20220;-72
2022/04/13 09:01:47;;;;;;;10.38;3.90;;;28.50;9.10;;;;;;5023899;28;20257;-72
2022/04/13 09:04:15;;;;;;;6.28;3.65;;;29.00;12.00;;;;;;5027810;28;20181;-72
2022/04/13 09:06:43;;;;;;;9.40;4.13;;;29.30;7.30;;;;;;5024480;28;20224;-72
2022/04/13 09:09:15;;;;;;;7.43;3.70;;;29.70;5.80;;;;;;5039577;28;20181;-72
2022/04/13 09:11:44;;;;;;;10.95;4.07;;;29.90;5.90;;;;;;5040687;28;20180;-72
2022/04/13 09:14:10;;;;;;;6.10;3.80;;;30.40;1.60;;;;;;5038958;28;20203;-72
2022/04/13 09:16:36;;;;;;;5.97;3.78;;;30.10;2.40;;;;;;5032654;28;20276;-72
2022/04/13 09:19:02;;;;;;;7.28;3.90;;;30.00;2.90;;;;;;5036613;28;20235;-72
2022/04/13 09:21:32;;;;;;;8.90;3.65;;;30.00;3.30;;;;;;5028066;28;20161;-72
2022/04/13 09:23:59;;;;;;;4.82;3.22;;;30.50;4.80;;;;;;5029193;28;20283;-72
2022/04/13 09:26:25;;;;;;;5.43;3.25;;;31.30;2.90;;;;;;5024679;28;20326;-71
2022/04/13 09:28:50;;;;;;;10.10;3.60;;;32.00;1.00;;;;;;5027258;28;20628;-71
2022/04/13 09:31:16;;;;;;;8.23;3.80;;;32.20;1.00;;;;;;5039953;28;20200;-72
2022/04/13 09:33:43;;;;;;;8.88;3.78;;;31.90;1.00;;;;;;5029292;28;20679;-71
2022/04/13 09:36:08;;;;;;;4.25;3.10;;;32.40;1.00;;;;;;5046448;28;20207;-72
2022/04/13 09:38:35;;;;;;;5.10;3.60;;;32.90;1.00;;;;;;5039737;28;20181;-72
2022/04/13 09:41:11;;;;;;;5.35;3.65;;;33.00;1.00;;;;;;5029894;28;20261;-73
2022/04/13 09:43:37;;;;;;;4.55;3.00;;;33.10;1.00;;;;;;5041775;28;20188;-72
2022/04/13 09:46:03;;;;;;;4.63;2.70;;;33.40;1.00;;;;;;5046368;28;20185;-72
2022/04/13 09:48:29;;;;;;;6.65;3.00;;;33.00;1.00;;;;;;5040841;28;20646;-73
2022/04/13 09:51:00;;;;;;;6.20;3.28;;;33.40;1.00;;;;;;5045229;28;20275;-72
2022/04/13 09:53:27;;;;;;;5.47;3.33;;;34.00;1.00;;;;;;5038527;28;20193;-72
2022/04/13 09:55:59;;;;;;;6.68;3.47;;;34.50;1.00;;;;;;5013004;28;20320;-72
2022/04/13 09:58:26;;;;;;;6.78;3.20;;;35.10;1.00;;;;;;5025505;28;20169;-73
2022/04/13 10:00:55;;;;;;;5.88;3.10;;;35.70;1.00;;;;;;5026275;28;20192;-76
2022/04/13 10:03:22;;;;;;;7.05;2.90;;;36.50;1.00;;;;;;5025939;28;20207;-72
2022/04/13 10:05:53;;;;;;;5.95;3.40;;;36.20;1.00;;;;;;5033385;28;20558;-72
2022/04/13 10:08:24;;;;;;;8.25;3.55;;;35.90;1.00;;;;;;5028044;28;20169;-73
2022/04/13 10:10:52;;;;;;;5.32;3.25;;;35.80;1.00;;;;;;5009693;28;20185;-73
2022/04/13 10:13:32;;;;;;;5.45;3.15;;;35.40;1.00;;;;;;5027758;28;20564;-73
2022/04/13 10:15:59;;;;;;;5.60;3.30;;;36.00;1.00;;;;;;5027175;28;20192;-73
2022/04/13 10:18:26;;;;;;;7.05;4.25;;;36.40;1.00;;;;;;5028621;28;20231;-72
2022/04/13 10:20:51;;;;;;;5.97;4.32;;;36.30;1.00;;;;;;5027781;28;20311;-72
2022/04/13 10:23:17;;;;;;;6.95;4.28;;;36.30;1.00;;;;;;5028687;28;20648;-72
2022/04/13 10:25:43;;;;;;;7.95;4.35;;;36.30;1.00;;;;;;5027894;28;20610;-72
2022/04/13 10:28:12;;;;;;;10.52;4.45;;;36.70;1.00;;;;;;5004078;28;20181;-72
2022/04/13 10:30:40;;;;;;;9.18;6.35;;;37.10;1.00;;;;;;5028899;28;20177;-74
2022/04/13 10:33:14;;;;;;;16.90;5.35;;;37.20;1.00;;;;;;5030872;28;20199;-75
2022/04/13 10:35:43;;;;;;;10.25;5.95;;;37.40;1.00;;;;;;5033496;28;20193;-74
2022/04/13 10:38:09;;;;;;;8.95;4.95;;;37.60;1.00;;;;;;5031692;28;20185;-75
2022/04/13 10:40:40;;;;;;;5.90;4.40;;;37.50;1.00;;;;;;5013400;28;20259;-75
2022/04/13 10:43:07;;;;;;;8.40;4.60;;;37.30;1.00;;;;;;5031363;28;20177;-74
2022/04/13 10:45:34;;;;;;;10.70;4.32;;;37.60;1.00;;;;;;5038901;28;20763;-74
2022/04/13 10:48:05;;;;;;;9.20;4.20;;;37.70;1.00;;;;;;5015785;28;20210;-75
2022/04/13 10:50:59;;;;;;;8.45;4.70;;;37.60;1.00;;;;;;5025519;28;20177;-75
2022/04/13 10:53:28;;;;;;;5.85;3.92;;;37.50;1.00;;;;;;5034063;28;20235;-74
2022/04/13 10:56:05;;;;;;;7.43;3.50;;;37.60;1.00;;;;;;5033433;28;20284;-72
2022/04/13 10:58:47;;;;;;;8.65;3.47;;;37.70;1.00;;;;;;5034461;28;20650;-72
2022/04/13 11:01:15;;;;;;;9.27;3.70;;;38.10;1.00;;;;;;5033127;28;20421;-73
2022/04/13 11:03:41;;;;;;;8.10;3.60;;;38.30;1.00;;;;;;5034213;28;20184;-74
2022/04/13 11:06:09;;;;;;;8.50;3.63;;;38.60;1.00;;;;;;5033291;28;20223;-74
2022/04/13 11:09:15;;;;;;;11.32;3.50;;;38.80;1.00;;;;;;5034213;28;20180;-74
2022/04/13 11:11:43;;;;;;;11.07;4.05;;;38.60;1.00;;;;;;5022722;28;20284;-74
2022/04/13 11:14:19;;;;;;;13.77;3.60;;;38.90;1.00;;;;;;5025955;28;20643;-74
2022/04/13 11:16:45;;;;;;;11.20;3.90;;;39.20;1.00;;;;;;5032692;28;20291;-73
2022/04/13 11:19:10;;;;;;;9.20;3.60;;;39.40;1.00;;;;;;5034537;28;20176;-74
2022/04/13 11:21:51;;;;;;;7.07;3.20;;;39.50;1.00;;;;;;5033915;28;20181;-74
2022/04/13 11:24:56;;;;;;;5.90;3.47;;;39.20;1.00;;;;;;5015026;28;20308;-74
2022/04/13 11:27:22;;;;;;;6.82;2.92;;;38.60;1.00;;;;;;5033767;28;20673;-74
2022/04/13 11:30:00;;;;;;;7.25;2.80;;;38.70;1.00;;;;;;5034004;28;20259;-74
2022/04/13 11:32:36;;;;;;;12.57;3.58;;;38.70;1.00;;;;;;5034132;28;20180;-74
2022/04/13 11:35:03;;;;;;;5.45;2.67;;;39.20;1.00;;;;;;5034334;28;20283;-74
2022/04/13 11:37:34;;;;;;;8.80;2.80;;;39.40;1.00;;;;;;5031753;28;20181;-74
2022/04/13 11:40:06;;;;;;;6.40;2.70;;;39.50;1.00;;;;;;5033002;28;20253;-73
2022/04/13 11:42:40;;;;;;;9.23;2.50;;;39.80;1.00;;;;;;5033332;28;20260;-74
2022/04/13 11:45:05;;;;;;;7.60;2.50;;;39.40;1.00;;;;;;5036610;28;20203;-73
2022/04/13 11:47:39;;;;;;;5.50;2.33;;;39.80;1.00;;;;;;5036311;28;20200;-73
2022/04/13 11:50:18;;;;;;;6.03;2.38;;;40.00;1.00;;;;;;5029994;28;20299;-73
2022/04/13 11:53:10;;;;;;;10.55;3.03;;;39.80;1.00;;;;;;5033444;28;20303;-74
2022/04/13 11:55:46;;;;;;;6.78;2.22;;;40.30;1.00;;;;;;5032201;28;20193;-74
2022/04/13 11:58:13;;;;;;;5.53;2.20;;;40.90;1.00;;;;;;5033571;28;20555;-74
2022/04/13 12:00:40;;;;;;;5.85;2.63;;;40.70;1.00;;;;;;5032986;28;20247;-75
2022/04/13 12:03:14;;;;;;;5.53;2.60;;;40.30;1.00;;;;;;5031476;28;20173;-73
2022/04/13 12:05:42;;;;;;;12.65;2.67;;;40.90;1.00;;;;;;5030446;28;20326;-73
2022/04/13 12:08:11;;;;;;;7.13;2.45;;;41.00;1.00;;;;;;5012321;28;20211;-74
2022/04/13 12:10:38;;;;;;;7.22;2.25;;;41.50;1.00;;;;;;5029276;28;20596;-73
2022/04/13 12:13:04;;;;;;;7.03;2.25;;;41.70;1.00;;;;;;5029844;28;20216;-73
2022/04/13 12:15:44;;;;;;;7.90;2.13;;;41.40;1.00;;;;;;5035535;28;20288;-74
2022/04/13 12:18:10;;;;;;;6.32;2.70;;;41.20;1.00;;;;;;5025098;28;20169;-74
2022/04/13 12:20:36;;;;;;;7.05;2.25;;;41.20;1.00;;;;;;5030597;28;20170;-73
2022/04/13 12:23:14;;;;;;;12.98;2.70;;;41.30;1.00;;;;;;5028911;28;20259;-73
2022/04/13 12:25:44;;;;;;;8.18;3.00;;;41.70;1.00;;;;;;5029599;28;20261;-73
2022/04/13 12:28:09;;;;;;;7.63;2.40;;;41.20;1.00;;;;;;5025391;28;20670;-73
2022/04/13 12:30:35;;;;;;;11.70;2.80;;;41.00;1.00;;;;;;5029634;28;20189;-74
2022/04/13 12:33:12;;;;;;;7.88;2.28;;;41.00;1.00;;;;;;5029156;28;20223;-73
2022/04/13 12:36:00;;;;;;;7.68;2.47;;;41.80;1.00;;;;;;5020979;28;20667;-73
2022/04/13 12:38:29;;;;;;;8.40;2.55;;;42.80;1.00;;;;;;5011736;28;20707;-74
2022/04/13 12:41:13;;;;;;;7.50;2.78;;;42.80;1.00;;;;;;5029746;28;20177;-74
2022/04/13 12:43:43;;;;;;;9.13;2.60;;;42.20;1.00;;;;;;5030704;28;20177;-74
2022/04/13 12:46:14;;;;;;;8.55;2.67;;;41.30;1.00;;;;;;5031830;28;20608;-74
2022/04/13 12:48:41;;;;;;;10.35;2.50;;;40.70;1.00;;;;;;5029675;28;20242;-74
2022/04/13 12:51:07;;;;;;;10.80;2.70;;;40.70;1.00;;;;;;5028012;28;20590;-73
2022/04/13 12:53:51;;;;;;;7.40;2.67;;;40.80;1.00;;;;;;5012010;28;20212;-74
2022/04/13 12:56:50;;;;;;;5.13;2.63;;;40.60;1.00;;;;;;5016883;28;20193;-74